sensor_id;sensor_type;location;lat;lon;timestamp;temperature;humidity
65989;HTU21D;53592;51.402;6.054;2023-02-28T00:01:11;1.47;69.71
65989;HTU21D;53592;51.402;6.054;2023-02-28T00:03:37;1.47;69.77
65989;HTU21D;53592;51.402;6.054;2023-02-28T00:06:03;1.47;69.71
65989;HTU21D;53592;51.402;6.054;2023-02-28T00:08:30;1.47;69.74
65989;HTU21D;53592;51.402;6.054;2023-02-28T00:10:55;1.47;69.73
65989;HTU21D;53592;51.402;6.054;2023-02-28T00:13:21;1.43;69.83
65989;HTU21D;53592;51.402;6.054;2023-02-28T00:15:47;1.41;69.85
65989;HTU21D;53592;51.402;6.054;2023-02-28T00:18:12;1.40;69.90
65989;HTU21D;53592;51.402;6.054;2023-02-28T00:20:38;1.38;69.89
65989;HTU21D;53592;51.402;6.054;2023-02-28T00:23:04;1.36;70.03
65989;HTU21D;53592;51.402;6.054;2023-02-28T00:25:29;1.37;69.93
65989;HTU21D;53592;51.402;6.054;2023-02-28T00:27:55;1.33;70.07
65989;HTU21D;53592;51.402;6.054;2023-02-28T00:30:23;1.31;70.10
65989;HTU21D;53592;51.402;6.054;2023-02-28T00:32:49;1.22;70.09
65989;HTU21D;53592;51.402;6.054;2023-02-28T00:35:17;1.10;70.16
65989;HTU21D;53592;51.402;6.054;2023-02-28T00:37:43;0.98;70.54
65989;HTU21D;53592;51.402;6.054;2023-02-28T00:40:10;0.94;71.00
65989;HTU21D;53592;51.402;6.054;2023-02-28T00:42:36;0.93;71.12
65989;HTU21D;53592;51.402;6.054;2023-02-28T00:45:03;0.95;71.19
65989;HTU21D;53592;51.402;6.054;2023-02-28T00:47:30;0.96;71.29
65989;HTU21D;53592;51.402;6.054;2023-02-28T00:49:55;0.98;71.24
65989;HTU21D;53592;51.402;6.054;2023-02-28T00:52:21;1.04;71.07
65989;HTU21D;53592;51.402;6.054;2023-02-28T00:54:47;1.02;71.22
65989;HTU21D;53592;51.402;6.054;2023-02-28T00:57:12;0.99;71.31
65989;HTU21D;53592;51.402;6.054;2023-02-28T00:59:37;0.98;71.29
65989;HTU21D;53592;51.402;6.054;2023-02-28T01:02:03;0.96;71.48
65989;HTU21D;53592;51.402;6.054;2023-02-28T01:04:28;0.93;71.51
65989;HTU21D;53592;51.402;6.054;2023-02-28T01:06:54;0.88;71.68
65989;HTU21D;53592;51.402;6.054;2023-02-28T01:09:19;0.86;71.85
65989;HTU21D;53592;51.402;6.054;2023-02-28T01:11:45;0.83;72.01
65989;HTU21D;53592;51.402;6.054;2023-02-28T01:14:16;0.82;72.04
65989;HTU21D;53592;51.402;6.054;2023-02-28T01:16:42;0.83;72.10
65989;HTU21D;53592;51.402;6.054;2023-02-28T01:19:08;0.88;72.04
65989;HTU21D;53592;51.402;6.054;2023-02-28T01:21:33;0.88;72.09
65989;HTU21D;53592;51.402;6.054;2023-02-28T01:24:00;0.84;72.13
65989;HTU21D;53592;51.402;6.054;2023-02-28T01:26:26;0.80;72.37
65989;HTU21D;53592;51.402;6.054;2023-02-28T01:28:52;0.76;72.49
65989;HTU21D;53592;51.402;6.054;2023-02-28T01:31:20;0.74;72.70
65989;HTU21D;53592;51.402;6.054;2023-02-28T01:33:46;0.75;72.80
65989;HTU21D;53592;51.402;6.054;2023-02-28T01:36:18;0.79;72.77
65989;HTU21D;53592;51.402;6.054;2023-02-28T01:38:45;0.80;72.77
65989;HTU21D;53592;51.402;6.054;2023-02-28T01:41:24;0.81;72.77
65989;HTU21D;53592;51.402;6.054;2023-02-28T01:46:16;0.83;72.55
65989;HTU21D;53592;51.402;6.054;2023-02-28T01:48:51;0.84;72.51
65989;HTU21D;53592;51.402;6.054;2023-02-28T01:51:55;0.80;72.62
65989;HTU21D;53592;51.402;6.054;2023-02-28T01:54:30;0.76;72.87
65989;HTU21D;53592;51.402;6.054;2023-02-28T01:59:31;0.71;73.03
65989;HTU21D;53592;51.402;6.054;2023-02-28T02:01:58;0.73;73.09
65989;HTU21D;53592;51.402;6.054;2023-02-28T02:04:38;0.75;73.03
65989;HTU21D;53592;51.402;6.054;2023-02-28T02:07:05;0.73;72.98
65989;HTU21D;53592;51.402;6.054;2023-02-28T02:09:30;0.76;72.98
65989;HTU21D;53592;51.402;6.054;2023-02-28T02:11:57;0.78;72.80
65989;HTU21D;53592;51.402;6.054;2023-02-28T02:14:36;0.82;72.67
65989;HTU21D;53592;51.402;6.054;2023-02-28T02:17:25;0.79;72.59
65989;HTU21D;53592;51.402;6.054;2023-02-28T02:20:19;0.78;72.58
65989;HTU21D;53592;51.402;6.054;2023-02-28T02:36:32;0.72;73.08
65989;HTU21D;53592;51.402;6.054;2023-02-28T02:41:36;0.64;73.19
65989;HTU21D;53592;51.402;6.054;2023-02-28T02:44:44;0.64;73.32
65989;HTU21D;53592;51.402;6.054;2023-02-28T02:47:16;0.65;73.25
65989;HTU21D;53592;51.402;6.054;2023-02-28T02:49:50;0.64;73.24
65989;HTU21D;53592;51.402;6.054;2023-02-28T02:52:23;0.60;73.35
65989;HTU21D;53592;51.402;6.054;2023-02-28T02:54:54;0.59;73.37
65989;HTU21D;53592;51.402;6.054;2023-02-28T02:57:35;0.59;73.12
65989;HTU21D;53592;51.402;6.054;2023-02-28T03:00:04;0.50;73.17
65989;HTU21D;53592;51.402;6.054;2023-02-28T03:02:32;0.47;73.18
65989;HTU21D;53592;51.402;6.054;2023-02-28T03:05:04;0.45;73.28
65989;HTU21D;53592;51.402;6.054;2023-02-28T03:07:31;0.45;73.16
65989;HTU21D;53592;51.402;6.054;2023-02-28T03:09:57;0.42;73.09
65989;HTU21D;53592;51.402;6.054;2023-02-28T03:12:47;0.38;73.32
65989;HTU21D;53592;51.402;6.054;2023-02-28T03:15:32;0.42;73.06
65989;HTU21D;53592;51.402;6.054;2023-02-28T03:18:09;0.43;73.09
65989;HTU21D;53592;51.402;6.054;2023-02-28T03:20:40;0.42;73.19
65989;HTU21D;53592;51.402;6.054;2023-02-28T03:26:25;0.35;73.08
65989;HTU21D;53592;51.402;6.054;2023-02-28T03:31:50;0.32;73.14
65989;HTU21D;53592;51.402;6.054;2023-02-28T03:34:25;0.33;72.99
65989;HTU21D;53592;51.402;6.054;2023-02-28T03:37:01;0.33;72.74
65989;HTU21D;53592;51.402;6.054;2023-02-28T03:39:44;0.30;72.66
65989;HTU21D;53592;51.402;6.054;2023-02-28T03:42:27;0.28;72.70
65989;HTU21D;53592;51.402;6.054;2023-02-28T03:45:02;0.30;72.80
65989;HTU21D;53592;51.402;6.054;2023-02-28T03:50:36;0.33;72.73
65989;HTU21D;53592;51.402;6.054;2023-02-28T03:53:52;0.35;72.63
65989;HTU21D;53592;51.402;6.054;2023-02-28T03:56:01;0.35;72.70
65989;HTU21D;53592;51.402;6.054;2023-02-28T04:01:19;0.31;72.73
65989;HTU21D;53592;51.402;6.054;2023-02-28T04:03:46;0.29;72.84
65989;HTU21D;53592;51.402;6.054;2023-02-28T04:06:18;0.29;72.94
65989;HTU21D;53592;51.402;6.054;2023-02-28T04:08:45;0.25;73.11
65989;HTU21D;53592;51.402;6.054;2023-02-28T04:11:33;0.21;73.18
65989;HTU21D;53592;51.402;6.054;2023-02-28T04:14:03;0.18;73.25
65989;HTU21D;53592;51.402;6.054;2023-02-28T04:16:30;0.15;73.32
65989;HTU21D;53592;51.402;6.054;2023-02-28T04:18:56;0.10;73.31
65989;HTU21D;53592;51.402;6.054;2023-02-28T04:21:39;0.10;73.21
65989;HTU21D;53592;51.402;6.054;2023-02-28T04:24:07;0.12;73.44
65989;HTU21D;53592;51.402;6.054;2023-02-28T04:26:35;0.15;73.45
65989;HTU21D;53592;51.402;6.054;2023-02-28T04:29:03;0.18;73.25
65989;HTU21D;53592;51.402;6.054;2023-02-28T04:31:29;0.18;73.26
65989;HTU21D;53592;51.402;6.054;2023-02-28T04:33:55;0.16;73.31
65989;HTU21D;53592;51.402;6.054;2023-02-28T04:36:20;0.10;73.23
65989;HTU21D;53592;51.402;6.054;2023-02-28T04:38:48;0.05;73.38
65989;HTU21D;53592;51.402;6.054;2023-02-28T04:41:14;0.01;73.32
65989;HTU21D;53592;51.402;6.054;2023-02-28T04:43:40;-0.09;73.51
65989;HTU21D;53592;51.402;6.054;2023-02-28T04:46:06;-0.16;73.75
65989;HTU21D;53592;51.402;6.054;2023-02-28T04:48:34;-0.17;73.83
65989;HTU21D;53592;51.402;6.054;2023-02-28T04:51:12;-0.21;73.81
65989;HTU21D;53592;51.402;6.054;2023-02-28T04:53:39;-0.22;73.91
65989;HTU21D;53592;51.402;6.054;2023-02-28T04:56:06;-0.21;73.86
65989;HTU21D;53592;51.402;6.054;2023-02-28T04:58:32;-0.19;73.80
65989;HTU21D;53592;51.402;6.054;2023-02-28T05:01:07;-0.17;73.68
65989;HTU21D;53592;51.402;6.054;2023-02-28T05:03:39;-0.16;73.57
65989;HTU21D;53592;51.402;6.054;2023-02-28T05:06:09;-0.12;73.24
65989;HTU21D;53592;51.402;6.054;2023-02-28T05:08:35;-0.09;72.97
65989;HTU21D;53592;51.402;6.054;2023-02-28T05:11:02;-0.08;72.80
65989;HTU21D;53592;51.402;6.054;2023-02-28T05:13:28;-0.07;72.65
65989;HTU21D;53592;51.402;6.054;2023-02-28T05:15:54;-0.07;72.77
65989;HTU21D;53592;51.402;6.054;2023-02-28T05:18:20;-0.10;72.82
65989;HTU21D;53592;51.402;6.054;2023-02-28T05:20:45;-0.11;73.03
65989;HTU21D;53592;51.402;6.054;2023-02-28T05:23:12;-0.13;73.12
65989;HTU21D;53592;51.402;6.054;2023-02-28T05:25:39;-0.15;73.17
65989;HTU21D;53592;51.402;6.054;2023-02-28T05:28:05;-0.16;73.22
65989;HTU21D;53592;51.402;6.054;2023-02-28T05:30:32;-0.15;73.19
65989;HTU21D;53592;51.402;6.054;2023-02-28T05:32:58;-0.19;73.24
65989;HTU21D;53592;51.402;6.054;2023-02-28T05:35:24;-0.17;73.29
65989;HTU21D;53592;51.402;6.054;2023-02-28T05:37:50;-0.17;73.20
65989;HTU21D;53592;51.402;6.054;2023-02-28T05:40:16;-0.17;73.14
65989;HTU21D;53592;51.402;6.054;2023-02-28T05:42:41;-0.16;73.09
65989;HTU21D;53592;51.402;6.054;2023-02-28T05:45:08;-0.17;73.14
65989;HTU21D;53592;51.402;6.054;2023-02-28T05:47:33;-0.19;73.16
65989;HTU21D;53592;51.402;6.054;2023-02-28T05:49:59;-0.24;73.22
65989;HTU21D;53592;51.402;6.054;2023-02-28T05:52:25;-0.26;73.28
65989;HTU21D;53592;51.402;6.054;2023-02-28T05:54:51;-0.30;73.39
65989;HTU21D;53592;51.402;6.054;2023-02-28T05:57:16;-0.36;73.74
65989;HTU21D;53592;51.402;6.054;2023-02-28T05:59:42;-0.36;73.90
65989;HTU21D;53592;51.402;6.054;2023-02-28T06:02:13;-0.37;73.87
65989;HTU21D;53592;51.402;6.054;2023-02-28T06:04:39;-0.34;73.85
65989;HTU21D;53592;51.402;6.054;2023-02-28T06:07:06;-0.30;73.78
65989;HTU21D;53592;51.402;6.054;2023-02-28T06:09:31;-0.29;73.61
65989;HTU21D;53592;51.402;6.054;2023-02-28T06:11:58;-0.28;73.52
65989;HTU21D;53592;51.402;6.054;2023-02-28T06:14:24;-0.27;73.45
65989;HTU21D;53592;51.402;6.054;2023-02-28T06:16:50;-0.28;73.39
65989;HTU21D;53592;51.402;6.054;2023-02-28T06:19:15;-0.29;73.44
65989;HTU21D;53592;51.402;6.054;2023-02-28T06:21:42;-0.29;73.44
65989;HTU21D;53592;51.402;6.054;2023-02-28T06:24:08;-0.31;73.40
65989;HTU21D;53592;51.402;6.054;2023-02-28T06:26:33;-0.30;73.38
65989;HTU21D;53592;51.402;6.054;2023-02-28T06:28:59;-0.35;73.38
65989;HTU21D;53592;51.402;6.054;2023-02-28T06:31:26;-0.34;73.61
65989;HTU21D;53592;51.402;6.054;2023-02-28T06:33:54;-0.31;73.57
65989;HTU21D;53592;51.402;6.054;2023-02-28T06:36:21;-0.31;73.63
65989;HTU21D;53592;51.402;6.054;2023-02-28T06:38:46;-0.34;73.76
65989;HTU21D;53592;51.402;6.054;2023-02-28T06:41:16;-0.34;74.06
65989;HTU21D;53592;51.402;6.054;2023-02-28T06:43:42;-0.30;74.02
65989;HTU21D;53592;51.402;6.054;2023-02-28T06:46:12;-0.31;74.02
65989;HTU21D;53592;51.402;6.054;2023-02-28T06:48:39;-0.31;74.02
65989;HTU21D;53592;51.402;6.054;2023-02-28T06:51:07;-0.32;74.09
65989;HTU21D;53592;51.402;6.054;2023-02-28T06:53:34;-0.29;74.09
65989;HTU21D;53592;51.402;6.054;2023-02-28T06:56:03;-0.27;74.09
65989;HTU21D;53592;51.402;6.054;2023-02-28T06:58:29;-0.27;74.01
65989;HTU21D;53592;51.402;6.054;2023-02-28T07:00:54;-0.24;74.05
65989;HTU21D;53592;51.402;6.054;2023-02-28T07:03:21;-0.22;74.02
65989;HTU21D;53592;51.402;6.054;2023-02-28T07:05:47;-0.19;73.93
65989;HTU21D;53592;51.402;6.054;2023-02-28T07:08:12;-0.19;73.99
65989;HTU21D;53592;51.402;6.054;2023-02-28T07:10:38;-0.15;74.09
65989;HTU21D;53592;51.402;6.054;2023-02-28T07:13:05;-0.09;74.67
65989;HTU21D;53592;51.402;6.054;2023-02-28T07:15:31;0.07;75.56
65989;HTU21D;53592;51.402;6.054;2023-02-28T07:17:57;0.30;76.20
65989;HTU21D;53592;51.402;6.054;2023-02-28T07:20:23;0.66;76.52
65989;HTU21D;53592;51.402;6.054;2023-02-28T07:22:49;1.11;75.73
65989;HTU21D;53592;51.402;6.054;2023-02-28T07:25:26;1.67;74.18
65989;HTU21D;53592;51.402;6.054;2023-02-28T07:27:53;2.21;73.25
65989;HTU21D;53592;51.402;6.054;2023-02-28T07:30:18;2.79;70.99
65989;HTU21D;53592;51.402;6.054;2023-02-28T07:32:44;3.26;69.05
65989;HTU21D;53592;51.402;6.054;2023-02-28T07:35:10;3.72;67.52
65989;HTU21D;53592;51.402;6.054;2023-02-28T07:37:35;4.17;66.18
65989;HTU21D;53592;51.402;6.054;2023-02-28T07:40:06;4.61;64.50
65989;HTU21D;53592;51.402;6.054;2023-02-28T07:42:37;5.03;63.76
65989;HTU21D;53592;51.402;6.054;2023-02-28T07:45:03;5.41;61.86
65989;HTU21D;53592;51.402;6.054;2023-02-28T07:47:30;5.77;60.99
65989;HTU21D;53592;51.402;6.054;2023-02-28T07:49:56;6.13;59.90
65989;HTU21D;53592;51.402;6.054;2023-02-28T07:52:22;6.51;58.82
65989;HTU21D;53592;51.402;6.054;2023-02-28T07:54:49;6.84;57.15
65989;HTU21D;53592;51.402;6.054;2023-02-28T07:57:15;7.01;56.21
65989;HTU21D;53592;51.402;6.054;2023-02-28T07:59:41;7.23;55.62
65989;HTU21D;53592;51.402;6.054;2023-02-28T08:02:06;7.19;54.19
65989;HTU21D;53592;51.402;6.054;2023-02-28T08:04:32;7.15;54.35
65989;HTU21D;53592;51.402;6.054;2023-02-28T08:06:58;7.04;53.87
65989;HTU21D;53592;51.402;6.054;2023-02-28T08:09:24;6.95;54.12
65989;HTU21D;53592;51.402;6.054;2023-02-28T08:11:50;6.74;53.57
65989;HTU21D;53592;51.402;6.054;2023-02-28T08:14:15;6.48;52.98
65989;HTU21D;53592;51.402;6.054;2023-02-28T08:16:41;6.04;52.18
65989;HTU21D;53592;51.402;6.054;2023-02-28T08:19:08;5.42;54.48
65989;HTU21D;53592;51.402;6.054;2023-02-28T08:21:34;5.30;56.49
65989;HTU21D;53592;51.402;6.054;2023-02-28T08:23:59;5.31;56.16
65989;HTU21D;53592;51.402;6.054;2023-02-28T08:26:25;5.20;56.19
65989;HTU21D;53592;51.402;6.054;2023-02-28T08:28:51;5.11;56.89
65989;HTU21D;53592;51.402;6.054;2023-02-28T08:31:18;5.00;56.26
65989;HTU21D;53592;51.402;6.054;2023-02-28T08:33:45;4.78;57.15
65989;HTU21D;53592;51.402;6.054;2023-02-28T08:36:11;4.68;56.68
65989;HTU21D;53592;51.402;6.054;2023-02-28T08:38:37;4.58;56.43
65989;HTU21D;53592;51.402;6.054;2023-02-28T08:41:06;4.45;56.90
65989;HTU21D;53592;51.402;6.054;2023-02-28T08:43:33;4.42;56.97
65989;HTU21D;53592;51.402;6.054;2023-02-28T08:45:59;4.51;57.17
65989;HTU21D;53592;51.402;6.054;2023-02-28T08:48:30;4.62;57.52
65989;HTU21D;53592;51.402;6.054;2023-02-28T08:50:58;4.89;57.04
65989;HTU21D;53592;51.402;6.054;2023-02-28T08:53:24;5.30;55.59
65989;HTU21D;53592;51.402;6.054;2023-02-28T08:55:58;5.70;55.49
65989;HTU21D;53592;51.402;6.054;2023-02-28T08:58:24;6.13;52.76
65989;HTU21D;53592;51.402;6.054;2023-02-28T09:00:50;6.28;51.77
65989;HTU21D;53592;51.402;6.054;2023-02-28T09:03:16;6.53;50.69
65989;HTU21D;53592;51.402;6.054;2023-02-28T09:05:55;6.70;49.02
65989;HTU21D;53592;51.402;6.054;2023-02-28T09:08:21;6.86;48.94
65989;HTU21D;53592;51.402;6.054;2023-02-28T09:10:46;7.15;48.30
65989;HTU21D;53592;51.402;6.054;2023-02-28T09:13:12;7.40;46.64
65989;HTU21D;53592;51.402;6.054;2023-02-28T09:15:38;7.58;48.11
65989;HTU21D;53592;51.402;6.054;2023-02-28T09:18:04;7.97;47.72
65989;HTU21D;53592;51.402;6.054;2023-02-28T09:20:29;8.50;47.54
65989;HTU21D;53592;51.402;6.054;2023-02-28T09:22:55;8.59;44.16
65989;HTU21D;53592;51.402;6.054;2023-02-28T09:25:20;8.45;44.04
65989;HTU21D;53592;51.402;6.054;2023-02-28T09:27:46;8.75;43.57
65989;HTU21D;53592;51.402;6.054;2023-02-28T09:30:12;8.86;42.58
65989;HTU21D;53592;51.402;6.054;2023-02-28T09:32:38;8.82;41.99
65989;HTU21D;53592;51.402;6.054;2023-02-28T09:35:04;8.91;43.02
65989;HTU21D;53592;51.402;6.054;2023-02-28T09:37:30;9.19;39.94
65989;HTU21D;53592;51.402;6.054;2023-02-28T09:39:56;9.18;39.35
65989;HTU21D;53592;51.402;6.054;2023-02-28T09:42:31;9.18;39.99
65989;HTU21D;53592;51.402;6.054;2023-02-28T09:45:00;9.18;39.24
65989;HTU21D;53592;51.402;6.054;2023-02-28T09:47:29;9.23;36.88
65989;HTU21D;53592;51.402;6.054;2023-02-28T09:52:49;9.17;35.08
65989;HTU21D;53592;51.402;6.054;2023-02-28T09:57:45;8.44;37.64
65989;HTU21D;53592;51.402;6.054;2023-02-28T10:00:35;8.45;38.30
65989;HTU21D;53592;51.402;6.054;2023-02-28T10:06:07;8.29;35.87
65989;HTU21D;53592;51.402;6.054;2023-02-28T10:11:15;8.17;36.20
65989;HTU21D;53592;51.402;6.054;2023-02-28T10:14:33;8.05;38.33
65989;HTU21D;53592;51.402;6.054;2023-02-28T10:16:50;8.09;38.54
65989;HTU21D;53592;51.402;6.054;2023-02-28T10:19:39;8.19;37.63
65989;HTU21D;53592;51.402;6.054;2023-02-28T10:22:17;8.14;36.42
65989;HTU21D;53592;51.402;6.054;2023-02-28T10:24:48;8.03;38.38
65989;HTU21D;53592;51.402;6.054;2023-02-28T10:29:50;8.33;35.69
65989;HTU21D;53592;51.402;6.054;2023-02-28T10:32:23;8.13;37.99
65989;HTU21D;53592;51.402;6.054;2023-02-28T10:37:27;8.36;38.01
65989;HTU21D;53592;51.402;6.054;2023-02-28T10:39:53;8.31;36.90
65989;HTU21D;53592;51.402;6.054;2023-02-28T10:42:23;8.06;35.49
65989;HTU21D;53592;51.402;6.054;2023-02-28T10:45:10;7.90;36.34
65989;HTU21D;53592;51.402;6.054;2023-02-28T10:50:29;7.62;36.94
65989;HTU21D;53592;51.402;6.054;2023-02-28T10:55:33;7.81;38.76
65989;HTU21D;53592;51.402;6.054;2023-02-28T10:57:58;7.98;37.98
65989;HTU21D;53592;51.402;6.054;2023-02-28T11:00:25;7.93;37.96
65989;HTU21D;53592;51.402;6.054;2023-02-28T11:02:56;7.91;37.23
65989;HTU21D;53592;51.402;6.054;2023-02-28T11:05:31;7.74;37.71
65989;HTU21D;53592;51.402;6.054;2023-02-28T11:08:14;7.60;37.29
65989;HTU21D;53592;51.402;6.054;2023-02-28T11:10:46;7.45;38.10
65989;HTU21D;53592;51.402;6.054;2023-02-28T11:13:32;7.32;38.82
65989;HTU21D;53592;51.402;6.054;2023-02-28T11:16:03;7.27;37.81
65989;HTU21D;53592;51.402;6.054;2023-02-28T11:18:41;7.05;38.75
65989;HTU21D;53592;51.402;6.054;2023-02-28T11:21:10;7.02;39.46
65989;HTU21D;53592;51.402;6.054;2023-02-28T11:23:41;7.00;39.59
65989;HTU21D;53592;51.402;6.054;2023-02-28T11:26:08;7.09;39.64
65989;HTU21D;53592;51.402;6.054;2023-02-28T11:28:41;7.03;38.71
65989;HTU21D;53592;51.402;6.054;2023-02-28T11:33:49;6.97;39.46
65989;HTU21D;53592;51.402;6.054;2023-02-28T11:36:25;6.99;39.07
65989;HTU21D;53592;51.402;6.054;2023-02-28T11:38:54;6.89;38.65
65989;HTU21D;53592;51.402;6.054;2023-02-28T11:47:59;7.27;39.62
65989;HTU21D;53592;51.402;6.054;2023-02-28T11:52:53;7.15;37.88
65989;HTU21D;53592;51.402;6.054;2023-02-28T11:55:42;6.99;38.42
65989;HTU21D;53592;51.402;6.054;2023-02-28T12:04:13;7.26;39.50
65989;HTU21D;53592;51.402;6.054;2023-02-28T12:28:22;7.31;40.98
65989;HTU21D;53592;51.402;6.054;2023-02-28T12:31:11;7.39;40.12
65989;HTU21D;53592;51.402;6.054;2023-02-28T12:33:46;7.44;40.96
65989;HTU21D;53592;51.402;6.054;2023-02-28T12:36:18;7.45;40.65
65989;HTU21D;53592;51.402;6.054;2023-02-28T12:39:00;7.44;40.05
65989;HTU21D;53592;51.402;6.054;2023-02-28T12:44:03;7.41;40.37
65989;HTU21D;53592;51.402;6.054;2023-02-28T12:46:42;7.44;40.59
65989;HTU21D;53592;51.402;6.054;2023-02-28T12:49:15;7.52;40.59
65989;HTU21D;53592;51.402;6.054;2023-02-28T12:51:44;7.41;40.18
65989;HTU21D;53592;51.402;6.054;2023-02-28T12:54:21;7.42;40.38
65989;HTU21D;53592;51.402;6.054;2023-02-28T12:59:54;7.49;40.71
65989;HTU21D;53592;51.402;6.054;2023-02-28T13:10:57;7.53;40.23
65989;HTU21D;53592;51.402;6.054;2023-02-28T13:13:26;7.46;40.20
65989;HTU21D;53592;51.402;6.054;2023-02-28T13:16:08;7.50;40.38
65989;HTU21D;53592;51.402;6.054;2023-02-28T13:18:40;7.45;40.30
65989;HTU21D;53592;51.402;6.054;2023-02-28T13:21:22;7.49;40.26
65989;HTU21D;53592;51.402;6.054;2023-02-28T13:26:22;7.67;40.30
65989;HTU21D;53592;51.402;6.054;2023-02-28T13:31:18;7.70;39.71
65989;HTU21D;53592;51.402;6.054;2023-02-28T13:38:46;7.48;39.88
65989;HTU21D;53592;51.402;6.054;2023-02-28T13:44:18;7.50;39.91
65989;HTU21D;53592;51.402;6.054;2023-02-28T14:06:27;7.55;40.89
65989;HTU21D;53592;51.402;6.054;2023-02-28T14:09:27;7.52;40.17
65989;HTU21D;53592;51.402;6.054;2023-02-28T14:11:53;7.56;39.71
65989;HTU21D;53592;51.402;6.054;2023-02-28T14:17:07;7.44;40.62
65989;HTU21D;53592;51.402;6.054;2023-02-28T14:19:37;7.43;40.20
65989;HTU21D;53592;51.402;6.054;2023-02-28T14:22:18;7.37;40.62
65989;HTU21D;53592;51.402;6.054;2023-02-28T14:36:18;7.35;40.99
65989;HTU21D;53592;51.402;6.054;2023-02-28T14:38:46;7.31;41.13
65989;HTU21D;53592;51.402;6.054;2023-02-28T14:41:21;7.29;40.92
65989;HTU21D;53592;51.402;6.054;2023-02-28T14:43:54;7.27;41.11
65989;HTU21D;53592;51.402;6.054;2023-02-28T14:46:21;7.28;40.89
65989;HTU21D;53592;51.402;6.054;2023-02-28T14:48:49;7.25;41.43
65989;HTU21D;53592;51.402;6.054;2023-02-28T14:51:21;7.22;41.87
65989;HTU21D;53592;51.402;6.054;2023-02-28T14:53:57;7.20;41.77
65989;HTU21D;53592;51.402;6.054;2023-02-28T14:56:34;7.13;41.90
65989;HTU21D;53592;51.402;6.054;2023-02-28T14:58:59;7.09;41.83
65989;HTU21D;53592;51.402;6.054;2023-02-28T15:01:26;7.01;42.16
65989;HTU21D;53592;51.402;6.054;2023-02-28T15:04:01;7.02;42.07
65989;HTU21D;53592;51.402;6.054;2023-02-28T15:06:28;6.97;42.72
65989;HTU21D;53592;51.402;6.054;2023-02-28T15:09:26;6.95;42.88
65989;HTU21D;53592;51.402;6.054;2023-02-28T15:11:52;7.00;42.67
65989;HTU21D;53592;51.402;6.054;2023-02-28T15:14:20;6.93;41.83
65989;HTU21D;53592;51.402;6.054;2023-02-28T15:16:55;6.93;42.44
65989;HTU21D;53592;51.402;6.054;2023-02-28T15:19:32;6.87;42.45
65989;HTU21D;53592;51.402;6.054;2023-02-28T15:24:42;6.71;43.97
65989;HTU21D;53592;51.402;6.054;2023-02-28T15:27:23;6.78;43.71
65989;HTU21D;53592;51.402;6.054;2023-02-28T15:29:55;6.80;43.69
65989;HTU21D;53592;51.402;6.054;2023-02-28T15:34:58;6.70;43.81
65989;HTU21D;53592;51.402;6.054;2023-02-28T15:37:44;6.67;44.16
65989;HTU21D;53592;51.402;6.054;2023-02-28T15:42:36;6.54;44.74
65989;HTU21D;53592;51.402;6.054;2023-02-28T15:45:01;6.56;44.57
65989;HTU21D;53592;51.402;6.054;2023-02-28T15:47:29;6.52;45.23
65989;HTU21D;53592;51.402;6.054;2023-02-28T15:50:03;6.56;44.74
65989;HTU21D;53592;51.402;6.054;2023-02-28T15:52:42;6.49;44.96
65989;HTU21D;53592;51.402;6.054;2023-02-28T15:55:27;6.42;44.85
65989;HTU21D;53592;51.402;6.054;2023-02-28T15:57:56;6.36;45.28
65989;HTU21D;53592;51.402;6.054;2023-02-28T16:00:26;6.25;45.38
65989;HTU21D;53592;51.402;6.054;2023-02-28T16:02:52;6.25;45.34
65989;HTU21D;53592;51.402;6.054;2023-02-28T16:05:29;6.24;45.70
65989;HTU21D;53592;51.402;6.054;2023-02-28T16:08:11;6.25;45.49
65989;HTU21D;53592;51.402;6.054;2023-02-28T16:10:38;6.16;45.92
65989;HTU21D;53592;51.402;6.054;2023-02-28T16:13:04;6.14;46.00
65989;HTU21D;53592;51.402;6.054;2023-02-28T16:15:37;6.08;46.03
65989;HTU21D;53592;51.402;6.054;2023-02-28T16:18:10;6.00;46.19
65989;HTU21D;53592;51.402;6.054;2023-02-28T16:20:37;5.98;46.67
65989;HTU21D;53592;51.402;6.054;2023-02-28T16:23:02;5.95;46.91
65989;HTU21D;53592;51.402;6.054;2023-02-28T16:25:39;5.94;47.64
65989;HTU21D;53592;51.402;6.054;2023-02-28T16:28:19;5.90;47.02
65989;HTU21D;53592;51.402;6.054;2023-02-28T16:30:46;5.90;47.34
65989;HTU21D;53592;51.402;6.054;2023-02-28T16:33:12;5.90;47.08
65989;HTU21D;53592;51.402;6.054;2023-02-28T16:35:37;5.82;47.69
65989;HTU21D;53592;51.402;6.054;2023-02-28T16:38:03;5.81;47.66
65989;HTU21D;53592;51.402;6.054;2023-02-28T16:40:33;5.72;48.01
65989;HTU21D;53592;51.402;6.054;2023-02-28T16:43:04;5.68;48.13
65989;HTU21D;53592;51.402;6.054;2023-02-28T16:45:31;5.64;48.15
65989;HTU21D;53592;51.402;6.054;2023-02-28T16:47:57;5.64;48.38
65989;HTU21D;53592;51.402;6.054;2023-02-28T16:50:26;5.59;48.36
65989;HTU21D;53592;51.402;6.054;2023-02-28T16:52:53;5.54;48.74
65989;HTU21D;53592;51.402;6.054;2023-02-28T16:55:21;5.46;49.05
65989;HTU21D;53592;51.402;6.054;2023-02-28T16:57:58;5.42;49.18
65989;HTU21D;53592;51.402;6.054;2023-02-28T17:00:26;5.39;49.35
65989;HTU21D;53592;51.402;6.054;2023-02-28T17:02:53;5.33;49.28
65989;HTU21D;53592;51.402;6.054;2023-02-28T17:05:20;5.30;49.78
65989;HTU21D;53592;51.402;6.054;2023-02-28T17:07:47;5.26;49.54
65989;HTU21D;53592;51.402;6.054;2023-02-28T17:12:42;5.20;50.21
65989;HTU21D;53592;51.402;6.054;2023-02-28T17:15:13;5.18;50.24
65989;HTU21D;53592;51.402;6.054;2023-02-28T17:17:39;5.09;50.50
65989;HTU21D;53592;51.402;6.054;2023-02-28T17:20:06;5.07;50.76
65989;HTU21D;53592;51.402;6.054;2023-02-28T17:22:32;5.03;50.98
65989;HTU21D;53592;51.402;6.054;2023-02-28T17:24:58;5.03;51.30
65989;HTU21D;53592;51.402;6.054;2023-02-28T17:27:24;4.98;51.32
65989;HTU21D;53592;51.402;6.054;2023-02-28T17:29:50;4.92;51.65
65989;HTU21D;53592;51.402;6.054;2023-02-28T17:32:16;4.90;51.87
65989;HTU21D;53592;51.402;6.054;2023-02-28T17:34:42;4.84;52.01
65989;HTU21D;53592;51.402;6.054;2023-02-28T17:37:09;4.79;52.14
65989;HTU21D;53592;51.402;6.054;2023-02-28T17:39:35;4.75;52.36
65989;HTU21D;53592;51.402;6.054;2023-02-28T17:42:01;4.73;52.67
65989;HTU21D;53592;51.402;6.054;2023-02-28T17:44:27;4.73;52.85
65989;HTU21D;53592;51.402;6.054;2023-02-28T17:46:54;4.74;53.18
65989;HTU21D;53592;51.402;6.054;2023-02-28T17:49:20;4.78;53.18
65989;HTU21D;53592;51.402;6.054;2023-02-28T17:51:46;4.78;53.07
65989;HTU21D;53592;51.402;6.054;2023-02-28T17:54:12;4.76;53.17
65989;HTU21D;53592;51.402;6.054;2023-02-28T17:56:39;4.62;53.50
65989;HTU21D;53592;51.402;6.054;2023-02-28T17:59:05;4.52;53.95
65989;HTU21D;53592;51.402;6.054;2023-02-28T18:01:30;4.42;54.30
65989;HTU21D;53592;51.402;6.054;2023-02-28T18:03:56;4.39;54.65
65989;HTU21D;53592;51.402;6.054;2023-02-28T18:06:25;4.42;54.82
65989;HTU21D;53592;51.402;6.054;2023-02-28T18:08:53;4.41;54.77
65989;HTU21D;53592;51.402;6.054;2023-02-28T18:11:21;4.41;54.84
65989;HTU21D;53592;51.402;6.054;2023-02-28T18:13:51;4.38;54.89
65989;HTU21D;53592;51.402;6.054;2023-02-28T18:16:18;4.30;55.26
65989;HTU21D;53592;51.402;6.054;2023-02-28T18:18:45;4.20;55.63
65989;HTU21D;53592;51.402;6.054;2023-02-28T18:21:12;4.19;55.77
65989;HTU21D;53592;51.402;6.054;2023-02-28T18:23:39;4.19;55.79
65989;HTU21D;53592;51.402;6.054;2023-02-28T18:26:13;4.15;55.72
65989;HTU21D;53592;51.402;6.054;2023-02-28T18:28:40;4.07;56.07